CMB842 Details

Departure: NAS Sigonella (LICZ)
Arrival: Naval Station Rota (LERT) at N/A
Route: NELDA5U NELDA N573 BASMO M980 TBS UA31 ALR A411 MOS A44 MGA
Notes: USTRANSCOM CONTRACT FLIGHT


Current Weather Information
LICZ 250455Z 25005KT CAVOK 20/20 Q1016 RMK SKC VIS MIN 9999 WIND THR28 25004KT WIND THR10 25004KT A3002 BLU
LERT 250500Z 04003KT CAVOK 18/16 Q1015 NOSIG